Time;durP1;ratioP1;P1;durP2;ratioP2;P2;SDS_P1;SDS_P2;PMS_P1;PMS_P2;Temp;Humidity;BMP_temperature;BMP_pressure;BME280_temperature;BME280_humidity;BME280_pressure;Samples;Min_cycle;Max_cycle;Signal;HPM_P1;HPM_P2
2022/06/21 00:00:40;;;;;;;;;;;;;;;17.63;55.79;100165.72;4941854;29;1923;-63
2022/06/21 00:03:06;;;;;;;;;;;;;;;17.97;58.42;100163.91;4941945;29;1050;-62
2022/06/21 00:05:34;;;;;;;;;;;;;;;18.60;59.07;100174.44;4941959;29;1134;-62
2022/06/21 00:08:06;;;;;;;;;;;;;;;18.21;58.51;100161.06;4941715;29;995;-62
2022/06/21 00:10:34;;;;;;;;;;;;;;;18.06;57.65;100176.72;4959453;29;955;-62
2022/06/21 00:13:19;;;;;;;;;;;;;;;17.92;57.10;100173.03;4958980;29;959;-62
2022/06/21 00:15:45;;;;;;;;;;;;;;;17.82;56.54;100173.16;4962484;28;1686;-62
2022/06/21 00:18:11;;;;;;;;;;;;;;;17.76;56.13;100166.94;4941944;29;976;-62
2022/06/21 00:20:37;;;;;;;;;;;;;;;17.60;56.00;100160.84;4944077;28;1993;-62
2022/06/21 00:23:02;;;;;;;;;;;;;;;17.63;55.75;100165.72;4958920;29;1125;-62
2022/06/21 00:25:27;;;;;;;;;;;;;;;18.36;59.18;100176.53;4958624;29;1105;-62
2022/06/21 00:27:53;;;;;;;;;;;;;;;18.43;58.82;100174.22;4958796;28;1470;-62
2022/06/21 00:30:19;;;;;;;;;;;;;;;18.18;57.82;100175.44;4941683;29;1125;-62
2022/06/21 00:32:44;;;;;;;;;;;;;;;18.03;57.17;100177.28;4963576;28;936;-63
2022/06/21 00:35:12;;;;;;;;;;;;;;;17.89;56.57;100173.63;4942322;29;1061;-62
2022/06/21 00:37:37;;;;;;;;;;;;;;;17.78;56.46;100162.78;4963546;28;1078;-62
2022/06/21 00:40:09;;;;;;;;;;;;;;;17.72;55.97;100158.44;4961931;28;1988;-62
2022/06/21 00:42:34;;;;;;;;;;;;;;;17.62;55.79;100159.41;4941478;29;991;-62
2022/06/21 00:45:04;;;;;;;;;;;;;;;17.57;55.77;100150.41;4941229;29;979;-63
2022/06/21 00:47:36;;;;;;;;;;;;;;;17.52;55.69;100153.25;4958614;29;995;-62
2022/06/21 00:50:03;;;;;;;;;;;;;;;18.06;58.69;100145.59;4940836;29;976;-63
2022/06/21 00:52:37;;;;;;;;;;;;;;;18.52;59.15;100142.09;4941392;29;1204;-62
2022/06/21 00:55:04;;;;;;;;;;;;;;;18.13;58.40;100135.88;4935500;29;916;-62
2022/06/21 00:57:33;;;;;;;;;;;;;;;18.01;57.25;100131.94;4935220;29;1010;-62
2022/06/21 01:00:16;;;;;;;;;;;;;;;17.85;56.56;100123.06;4944248;29;1910;-62
2022/06/21 01:02:41;;;;;;;;;;;;;;;17.76;56.44;100126.47;4941005;29;972;-63
2022/06/21 01:05:07;;;;;;;;;;;;;;;17.67;56.08;100131.03;4958896;28;1018;-62
2022/06/21 01:07:32;;;;;;;;;;;;;;;17.62;55.63;100131.91;4940980;29;960;-62
2022/06/21 01:09:59;;;;;;;;;;;;;;;17.56;55.59;100129.53;4940994;29;931;-62
2022/06/21 01:12:27;;;;;;;;;;;;;;;18.05;58.88;100128.28;4958704;29;1113;-62
2022/06/21 01:14:54;;;;;;;;;;;;;;;18.44;59.08;100118.03;4958195;29;979;-62
2022/06/21 01:17:20;;;;;;;;;;;;;;;18.11;58.15;100121.59;4958026;29;1201;-63
2022/06/21 01:19:56;;;;;;;;;;;;;;;17.99;57.18;100126.72;4958335;29;1914;-62
2022/06/21 01:22:25;;;;;;;;;;;;;;;17.83;56.79;100122.56;4959616;28;1074;-62
2022/06/21 01:25:09;;;;;;;;;;;;;;;17.73;56.16;100143.59;4958040;29;1094;-62
2022/06/21 01:27:34;;;;;;;;;;;;;;;17.65;55.84;100149.75;4958148;29;1137;-62
2022/06/21 01:30:00;;;;;;;;;;;;;;;17.50;56.09;100139.78;4957604;29;1022;-62
2022/06/21 01:32:25;;;;;;;;;;;;;;;17.50;56.12;100147.19;4963482;28;1063;-62
2022/06/21 01:34:51;;;;;;;;;;;;;;;18.26;59.14;100147.25;4940960;29;988;-62
2022/06/21 01:37:19;;;;;;;;;;;;;;;18.52;58.97;100146.78;4940673;28;945;-62
2022/06/21 01:39:49;;;;;;;;;;;;;;;18.18;58.11;100142.41;4943104;29;1980;-62
2022/06/21 01:42:17;;;;;;;;;;;;;;;18.00;57.32;100144.88;4957621;29;1066;-62
2022/06/21 01:44:45;;;;;;;;;;;;;;;17.86;56.69;100144.78;4960042;28;1157;-62
2022/06/21 01:47:12;;;;;;;;;;;;;;;17.77;56.40;100146.56;4959017;28;1121;-62
2022/06/21 01:49:38;;;;;;;;;;;;;;;17.69;55.91;100150.78;4940851;29;1157;-62
2022/06/21 01:52:09;;;;;;;;;;;;;;;17.58;55.80;100136.34;4946810;28;1253;-62
2022/06/21 01:54:36;;;;;;;;;;;;;;;17.58;56.03;100147.34;4961123;29;1066;-62
2022/06/21 01:57:01;;;;;;;;;;;;;;;18.34;59.24;100140.22;4944302;29;1008;-62
2022/06/21 01:59:28;;;;;;;;;;;;;;;18.44;58.94;100146.38;4961598;29;1910;-62
2022/06/21 02:01:59;;;;;;;;;;;;;;;18.11;58.16;100137.28;4944373;29;971;-62
2022/06/21 02:04:25;;;;;;;;;;;;;;;17.93;57.31;100131.50;4961108;29;1017;-62
2022/06/21 02:10:16;;;;;;;;;;;;;;;17.74;56.22;100150.72;4961043;29;1079;-62
2022/06/21 02:12:43;;;;;;;;;;;;;;;17.66;55.98;100151.38;4961354;29;1034;-62
2022/06/21 02:15:10;;;;;;;;;;;;;;;17.60;55.97;100150.63;4961372;29;1034;-62
2022/06/21 02:17:39;;;;;;;;;;;;;;;17.50;55.73;100148.03;4944806;29;987;-62
2022/06/21 02:20:07;;;;;;;;;;;;;;;17.73;57.62;100143.59;4943999;29;1985;-61
2022/06/21 02:22:32;;;;;;;;;;;;;;;18.58;59.26;100127.13;4943056;29;1147;-62
2022/06/21 02:24:58;;;;;;;;;;;;;;;18.27;58.54;100132.34;4961055;28;964;-61
2022/06/21 02:27:23;;;;;;;;;;;;;;;18.05;57.73;100139.31;4947368;28;1023;-61
2022/06/21 02:29:50;;;;;;;;;;;;;;;17.93;57.09;100141.69;4963202;28;955;-62
2022/06/21 02:32:23;;;;;;;;;;;;;;;17.82;56.77;100137.41;4961777;28;1129;-62
2022/06/21 02:34:48;;;;;;;;;;;;;;;17.74;56.08;100142.47;4962010;28;1089;-62
2022/06/21 02:37:15;;;;;;;;;;;;;;;17.67;56.06;100142.03;4946219;29;989;-62
2022/06/21 02:39:41;;;;;;;;;;;;;;;17.61;55.54;100137.69;4946422;29;1978;-62
2022/06/21 02:42:20;;;;;;;;;;;;;;;17.56;56.50;100140.53;4944184;29;1034;-62
2022/06/21 02:44:47;;;;;;;;;;;;;;;18.40;59.23;100134.31;4943768;29;1109;-62
2022/06/21 02:47:14;;;;;;;;;;;;;;;18.12;58.41;100128.72;4943537;29;825;-62
2022/06/21 02:50:11;;;;;;;;;;;;;;;17.97;57.59;100125.41;4943265;29;991;-61
2022/06/21 02:52:37;;;;;;;;;;;;;;;17.83;56.71;100137.13;4961699;28;1162;-62
2022/06/21 02:55:06;;;;;;;;;;;;;;;17.74;56.29;100134.22;4960391;29;967;-62
2022/06/21 02:57:36;;;;;;;;;;;;;;;17.64;55.86;100126.09;4960554;29;995;-62
2022/06/21 03:00:04;;;;;;;;;;;;;;;17.55;55.97;100119.66;4960947;28;1918;-62
2022/06/21 03:02:29;;;;;;;;;;;;;;;17.73;57.63;100104.28;4963816;28;967;-62
2022/06/21 03:04:56;;;;;;;;;;;;;;;18.57;59.24;100102.66;4960038;29;1085;-61
2022/06/21 03:07:23;;;;;;;;;;;;;;;18.23;58.43;100109.28;4943045;29;939;-62
2022/06/21 03:09:48;;;;;;;;;;;;;;;18.00;57.52;100102.81;4959848;29;1038;-62
2022/06/21 03:12:24;;;;;;;;;;;;;;;17.91;57.02;100108.16;4961672;28;1173;-62
2022/06/21 03:14:50;;;;;;;;;;;;;;;17.79;56.29;100106.66;4942452;29;995;-62
2022/06/21 03:17:16;;;;;;;;;;;;;;;17.71;56.21;100110.09;4960614;28;1197;-62
2022/06/21 03:19:46;;;;;;;;;;;;;;;17.61;56.01;100118.47;4943058;29;1910;-62
2022/06/21 03:22:30;;;;;;;;;;;;;;;17.57;55.64;100111.91;4965662;28;872;-59
2022/06/21 03:24:57;;;;;;;;;;;;;;;17.49;55.71;100115.31;4959551;29;1034;-60
2022/06/21 03:27:36;;;;;;;;;;;;;;;17.71;57.49;100123.00;4964253;28;1050;-60
2022/06/21 03:30:01;;;;;;;;;;;;;;;18.60;59.05;100115.81;4960104;29;975;-60
2022/06/21 03:32:28;;;;;;;;;;;;;;;18.25;58.30;100109.81;4940921;29;1278;-56
2022/06/21 03:34:53;;;;;;;;;;;;;;;18.06;57.57;100124.44;4961796;28;1364;-57
2022/06/21 03:37:19;;;;;;;;;;;;;;;17.93;57.03;100136.19;4943769;29;1008;-56
2022/06/21 03:42:30;;;;;;;;;;;;;;;17.71;56.16;100134.84;4944828;28;1078;-57
2022/06/21 03:44:56;;;;;;;;;;;;;;;17.65;55.85;100116.75;4942260;29;972;-56
2022/06/21 03:47:24;;;;;;;;;;;;;;;17.59;55.84;100121.50;4959246;29;1026;-57
2022/06/21 03:50:01;;;;;;;;;;;;;;;17.50;55.69;100115.06;4953793;28;955;-56
2022/06/21 03:52:43;;;;;;;;;;;;;;;17.60;56.92;100111.34;4941658;29;1231;-56
2022/06/21 03:55:08;;;;;;;;;;;;;;;18.54;59.35;100106.03;4939750;29;1482;-56
2022/06/21 03:57:34;;;;;;;;;;;;;;;18.24;58.69;100114.53;4939063;29;1121;-56
2022/06/21 04:00:00;;;;;;;;;;;;;;;18.02;57.87;100106.06;4943945;29;1915;-56
2022/06/21 04:02:31;;;;;;;;;;;;;;;17.94;57.18;100102.06;4938307;29;2135;-56
2022/06/21 04:04:59;;;;;;;;;;;;;;;17.82;56.54;100102.47;4939492;29;1883;-56
2022/06/21 04:07:34;;;;;;;;;;;;;;;17.71;56.22;100104.59;4940174;29;1965;-56
2022/06/21 04:09:59;;;;;;;;;;;;;;;17.65;56.08;100114.00;4933087;28;2108;-56
2022/06/21 04:12:30;;;;;;;;;;;;;;;17.62;55.84;100109.09;4934476;29;1940;-58
2022/06/21 04:15:10;;;;;;;;;;;;;;;17.54;55.70;100112.50;4935801;29;2087;-56
2022/06/21 04:17:35;;;;;;;;;;;;;;;17.44;55.81;100106.03;4931624;29;2219;-56
2022/06/21 04:20:10;;;;;;;;;;;;;;;18.03;58.93;100114.00;4932378;29;1906;-56
2022/06/21 04:22:38;;;;;;;;;;;;;;;18.61;59.13;100112.75;4933291;29;1087;-57
2022/06/21 04:25:30;;;;;;;;;;;;;;;18.22;58.61;100110.44;4939638;29;1208;-58
2022/06/21 04:28:08;;;;;;;;;;;;;;;18.03;57.52;100097.50;4938205;29;1218;-57
2022/06/21 04:30:35;;;;;;;;;;;;;;;17.90;56.72;100106.50;4941040;29;976;-58
2022/06/21 04:33:12;;;;;;;;;;;;;;;17.81;56.59;100116.53;4942143;29;1115;-57
2022/06/21 04:35:44;;;;;;;;;;;;;;;17.74;56.04;100105.91;4937477;29;1189;-58
2022/06/21 04:38:23;;;;;;;;;;;;;;;17.70;55.95;100102.94;4938146;29;959;-58
2022/06/21 04:40:50;;;;;;;;;;;;;;;17.61;55.72;100105.56;4937731;29;1910;-58
2022/06/21 04:43:18;;;;;;;;;;;;;;;17.58;55.62;100094.31;4943999;29;1382;-57
2022/06/21 04:45:45;;;;;;;;;;;;;;;17.54;56.17;100101.53;4937948;29;998;-57
2022/06/21 04:48:31;;;;;;;;;;;;;;;18.35;59.24;100101.38;4935221;29;2697;-51
2022/06/21 04:51:17;;;;;;;;;;;;;;;18.21;58.92;100093.06;4939572;28;1520;-56
2022/06/21 04:54:01;;;;;;;;;;;;;;;18.01;57.83;100105.25;4939180;28;1176;-56
2022/06/21 04:56:45;;;;;;;;;;;;;;;17.87;57.00;100099.66;4958191;28;1157;-58
2022/06/21 04:59:12;;;;;;;;;;;;;;;17.82;56.57;100096.16;4961198;28;1973;-58
2022/06/21 05:01:37;;;;;;;;;;;;;;;17.73;56.22;100088.59;4959007;28;1125;-57
2022/06/21 05:04:03;;;;;;;;;;;;;;;17.65;56.17;100088.44;4941980;29;1047;-56
2022/06/21 05:06:28;;;;;;;;;;;;;;;17.59;56.10;100077.53;4957931;28;968;-56
2022/06/21 05:08:53;;;;;;;;;;;;;;;17.57;55.90;100089.91;4958171;28;1130;-56
2022/06/21 05:11:19;;;;;;;;;;;;;;;17.51;55.93;100096.63;4940561;29;1059;-56
2022/06/21 05:13:48;;;;;;;;;;;;;;;18.06;58.58;100098.84;4940140;29;1022;-58
2022/06/21 05:16:17;;;;;;;;;;;;;;;18.41;59.06;100083.66;4958760;28;976;-57
2022/06/21 05:18:44;;;;;;;;;;;;;;;18.12;58.19;100090.22;4961867;28;1050;-59
2022/06/21 05:21:13;;;;;;;;;;;;;;;17.96;57.51;100077.81;4939854;29;1906;-57
2022/06/21 05:23:39;;;;;;;;;;;;;;;17.81;57.24;100075.28;4957690;28;1114;-57
2022/06/21 05:26:07;;;;;;;;;;;;;;;17.77;56.78;100075.88;4959801;28;1383;-57
2022/06/21 05:28:35;;;;;;;;;;;;;;;17.71;56.52;100066.09;4960338;29;1165;-57
2022/06/21 05:31:03;;;;;;;;;;;;;;;17.61;56.15;100063.47;4961505;29;1142;-58
2022/06/21 05:33:35;;;;;;;;;;;;;;;17.59;56.15;100061.03;4944229;29;952;-58
2022/06/21 05:36:01;;;;;;;;;;;;;;;17.51;55.98;100058.94;4965052;28;1014;-57
2022/06/21 05:38:29;;;;;;;;;;;;;;;17.49;55.96;100060.34;4946268;29;1367;-57
2022/06/21 05:40:55;;;;;;;;;;;;;;;17.65;57.31;100052.72;4944309;29;1976;-58
2022/06/21 05:43:32;;;;;;;;;;;;;;;18.49;59.13;100049.09;4961509;29;1137;-56
2022/06/21 05:46:02;;;;;;;;;;;;;;;18.22;58.51;100050.69;4933104;28;941;-57
2022/06/21 05:48:29;;;;;;;;;;;;;;;17.99;57.71;100043.38;4961459;28;1140;-58
2022/06/21 05:50:54;;;;;;;;;;;;;;;17.89;57.37;100045.19;4962100;28;1091;-58
2022/06/21 05:53:29;;;;;;;;;;;;;;;17.83;56.71;100049.13;4955127;28;1228;-58
2022/06/21 05:55:54;;;;;;;;;;;;;;;17.75;56.75;100042.38;4970531;28;1311;-58
2022/06/21 05:58:21;;;;;;;;;;;;;;;18.46;56.57;100035.94;4956598;28;1139;-57
2022/06/21 06:01:06;;;;;;;;;;;;;;;17.34;60.68;100037.47;4943730;29;1993;-57
2022/06/21 06:03:50;;;;;;;;;;;;;;;18.95;56.07;100033.63;4962967;28;1122;-56
2022/06/21 06:06:17;;;;;;;;;;;;;;;17.08;59.93;100026.84;4961794;28;1078;-56
2022/06/21 06:08:46;;;;;;;;;;;;;;;18.35;57.36;100042.78;4943956;29;1055;-57
2022/06/21 06:11:13;;;;;;;;;;;;;;;18.22;58.34;100033.38;4961756;28;932;-56
2022/06/21 06:13:39;;;;;;;;;;;;;;;17.42;61.32;100028.56;4961391;29;1014;-56
2022/06/21 06:16:24;;;;;;;;;;;;;;;19.01;57.51;100034.34;4943515;29;1141;-57
2022/06/21 06:19:10;;;;;;;;;;;;;;;17.27;60.11;100043.34;4947349;29;1566;-60
2022/06/21 06:21:40;;;;;;;;;;;;;;;18.63;58.30;100035.34;4963222;28;847;-58
2022/06/21 06:24:06;;;;;;;;;;;;;;;18.12;59.42;100032.44;4961857;28;1152;-59
2022/06/21 06:26:32;;;;;;;;;;;;;;;17.42;62.21;100025.81;4960285;29;1003;-59
2022/06/21 06:28:59;;;;;;;;;;;;;;;19.16;58.59;100023.00;4960226;28;981;-58
2022/06/21 06:31:29;;;;;;;;;;;;;;;17.33;60.85;100019.34;4942719;29;908;-60
2022/06/21 06:33:59;;;;;;;;;;;;;;;18.46;60.17;100034.00;4943401;29;1015;-59
2022/06/21 06:36:26;;;;;;;;;;;;;;;18.16;60.36;100029.06;4960784;29;881;-59
2022/06/21 06:38:52;;;;;;;;;;;;;;;17.36;63.10;100020.69;4940779;29;1064;-58
2022/06/21 06:41:37;;;;;;;;;;;;;;;19.12;59.55;100016.47;4964522;28;1992;-58
2022/06/21 06:44:04;;;;;;;;;;;;;;;17.32;60.85;100023.22;4963139;28;1407;-58
2022/06/21 06:46:36;;;;;;;;;;;;;;;18.37;61.58;100027.59;4943356;29;1074;-58
2022/06/21 06:49:21;;;;;;;;;;;;;;;17.99;60.92;100027.69;4960132;28;933;-59
2022/06/21 06:51:49;;;;;;;;;;;;;;;17.61;63.20;100025.00;4938555;29;1117;-59
2022/06/21 06:54:36;;;;;;;;;;;;;;;18.80;60.64;100026.47;4942551;29;1225;-58
2022/06/21 06:57:03;;;;;;;;;;;;;;;17.21;62.68;100027.25;4943413;29;959;-59
2022/06/21 06:59:28;;;;;;;;;;;;;;;18.82;61.20;100018.72;4960329;29;1965;-59
2022/06/21 07:01:58;;;;;;;;;;;;;;;17.76;61.62;100029.44;4959204;29;1239;-58
2022/06/21 07:04:25;;;;;;;;;;;;;;;17.74;63.53;100029.75;4962518;28;1006;-58
2022/06/21 07:06:52;;;;;;;;;;;;;;;18.73;60.99;100018.63;4929212;29;835;-58
2022/06/21 07:09:24;;;;;;;;;;;;;;;17.19;61.32;100018.47;4944731;29;1145;-59
2022/06/21 07:12:00;;;;;;;;;;;;;;;18.51;62.88;100029.53;4960161;29;1058;-58
2022/06/21 07:14:26;;;;;;;;;;;;;;;17.69;62.47;100024.31;4943210;29;1174;-58
2022/06/21 07:16:52;;;;;;;;;;;;;;;17.73;63.89;100027.28;4948303;29;952;-56
2022/06/21 07:19:18;;;;;;;;;;;;;;;18.65;61.48;100024.88;4942981;29;1967;-57
2022/06/21 07:21:44;;;;;;;;;;;;;;;17.24;61.17;100027.44;4959127;28;912;-56
2022/06/21 07:24:19;;;;;;;;;;;;;;;18.57;63.00;100022.81;4959088;28;1103;-58
2022/06/21 07:26:47;;;;;;;;;;;;;;;17.83;62.67;100018.06;4959627;28;1035;-57
2022/06/21 07:29:14;;;;;;;;;;;;;;;17.55;64.62;100017.94;4942733;29;1004;-57
2022/06/21 07:31:40;;;;;;;;;;;;;;;18.70;62.08;100021.97;4957373;28;1034;-58
2022/06/21 07:34:05;;;;;;;;;;;;;;;17.23;61.75;100020.31;4947987;29;1015;-57
2022/06/21 07:36:54;;;;;;;;;;;;;;;18.07;66.18;100029.75;4960857;28;1091;-57
2022/06/21 07:39:22;;;;;;;;;;;;;;;18.54;64.74;100031.69;4948657;29;1981;-58
2022/06/21 07:41:50;;;;;;;;;;;;;;;17.16;63.76;100019.88;4945804;29;1226;-58
2022/06/21 07:44:20;;;;;;;;;;;;;;;18.76;64.25;100029.03;4959646;29;975;-57
2022/06/21 07:46:47;;;;;;;;;;;;;;;18.05;63.01;100023.75;4959266;29;1165;-59
2022/06/21 07:49:25;;;;;;;;;;;;;;;17.55;66.60;100031.69;4942023;28;976;-56
2022/06/21 07:51:56;;;;;;;;;;;;;;;19.05;62.77;100021.59;4958119;28;1137;-57
2022/06/21 07:54:27;;;;;;;;;;;;;;;17.31;61.12;100018.84;4942089;29;956;-57
2022/06/21 07:56:56;;;;;;;;;;;;;;;18.54;65.65;100017.94;4942202;29;1166;-58
2022/06/21 07:59:31;;;;;;;;;;;;;;;17.94;62.86;100017.59;4941976;29;1969;-58
2022/06/21 08:07:58;;;;;;;;;;;;;;;17.53;66.71;100012.75;4958448;29;1416;-57
2022/06/21 08:10:40;;;;;;;;;;;;;;;19.05;63.48;100011.38;4959264;29;971;-57
2022/06/21 08:13:06;;;;;;;;;;;;;;;17.23;61.75;100008.53;4940825;29;1481;-58
2022/06/21 08:15:34;;;;;;;;;;;;;;;18.59;65.72;100004.03;4958723;29;1502;-58
2022/06/21 08:18:11;;;;;;;;;;;;;;;18.05;63.17;100014.69;4959780;28;933;-56
2022/06/21 08:20:47;;;;;;;;;;;;;;;17.73;67.48;100003.34;4941360;28;1987;-58
2022/06/21 08:23:13;;;;;;;;;;;;;;;18.71;63.50;100007.09;4940094;29;968;-58
2022/06/21 08:25:41;;;;;;;;;;;;;;;17.23;61.64;100005.78;4958056;28;998;-58
2022/06/21 08:28:10;;;;;;;;;;;;;;;18.64;66.15;100002.00;4958080;29;1089;-57
2022/06/21 08:30:46;;;;;;;;;;;;;;;17.86;63.01;99999.00;4957714;28;1174;-58
2022/06/21 08:33:42;;;;;;;;;;;;;;;18.03;67.07;99995.72;4957972;28;1129;-58
2022/06/21 08:36:11;;;;;;;;;;;;;;;18.42;63.46;99990.88;4941903;29;1394;-58
2022/06/21 08:38:38;;;;;;;;;;;;;;;17.18;65.00;99989.34;4957848;28;1133;-58
2022/06/21 08:44:22;;;;;;;;;;;;;;;17.33;61.83;99988.31;4960392;28;918;-58
2022/06/21 08:46:50;;;;;;;;;;;;;;;18.54;66.87;99990.41;4943686;29;1273;-58
2022/06/21 08:49:26;;;;;;;;;;;;;;;17.83;63.29;99983.13;4958128;29;1042;-58
2022/06/21 08:51:52;;;;;;;;;;;;;;;17.97;67.91;99990.63;4940588;29;1213;-58
2022/06/21 08:54:44;;;;;;;;;;;;;;;18.78;63.86;99979.16;4957971;29;1030;-58
2022/06/21 08:57:17;;;;;;;;;;;;;;;17.15;63.51;99979.75;4922529;28;1159;-58
2022/06/21 08:59:51;;;;;;;;;;;;;;;18.98;65.75;99978.75;4940007;29;1906;-57
2022/06/21 09:02:29;;;;;;;;;;;;;;;17.48;62.71;99976.28;4953175;29;1034;-57
2022/06/21 09:04:55;;;;;;;;;;;;;;;18.15;68.30;99986.19;4958288;29;959;-57
2022/06/21 09:07:29;;;;;;;;;;;;;;;18.18;64.44;99971.81;4958535;28;1024;-57
2022/06/21 09:10:13;;;;;;;;;;;;;;;17.37;67.34;99981.13;4960622;28;845;-57
2022/06/21 09:12:53;;;;;;;;;;;;;;;19.00;64.71;99975.69;4957337;29;1010;-57
2022/06/21 09:15:28;;;;;;;;;;;;;;;17.31;62.09;99961.13;4957586;29;1081;-57
2022/06/21 09:17:56;;;;;;;;;;;;;;;18.63;67.12;99963.75;4958207;28;1078;-57
2022/06/21 09:20:22;;;;;;;;;;;;;;;17.85;63.81;99974.56;4957448;28;1903;-57
2022/06/21 09:22:47;;;;;;;;;;;;;;;17.46;68.43;99979.34;4957680;29;1027;-57
2022/06/21 09:25:17;;;;;;;;;;;;;;;18.72;65.41;99972.94;4957552;29;1117;-56
2022/06/21 09:27:45;;;;;;;;;;;;;;;17.30;62.42;99973.25;4958048;29;1486;-58
2022/06/21 09:30:15;;;;;;;;;;;;;;;18.39;68.22;99972.22;4957516;29;963;-58
2022/06/21 09:32:44;;;;;;;;;;;;;;;17.90;64.14;99968.97;4945386;28;1003;-56
2022/06/21 09:35:09;;;;;;;;;;;;;;;17.47;68.79;99974.63;4957387;29;865;-57
2022/06/21 09:37:41;;;;;;;;;;;;;;;18.81;65.58;99976.59;4961298;28;1157;-57
2022/06/21 09:40:06;;;;;;;;;;;;;;;17.31;62.50;99965.84;4957912;29;1902;-56
2022/06/21 09:42:34;;;;;;;;;;;;;;;18.62;67.72;99970.38;4957765;29;1165;-58
2022/06/21 09:45:13;;;;;;;;;;;;;;;18.09;64.00;99969.75;4939418;29;1213;-56
2022/06/21 09:47:45;;;;;;;;;;;;;;;17.30;67.62;99967.75;4940324;29;1607;-56
2022/06/21 09:50:12;;;;;;;;;;;;;;;18.47;66.12;99958.56;4957271;29;1050;-56
2022/06/21 09:52:43;;;;;;;;;;;;;;;17.13;63.10;99954.53;4956996;29;1118;-56
2022/06/21 09:55:12;;;;;;;;;;;;;;;18.80;67.39;99958.44;4957495;29;1017;-57
2022/06/21 09:57:50;;;;;;;;;;;;;;;18.07;63.62;99955.47;4957283;29;1050;-58
2022/06/21 10:00:19;;;;;;;;;;;;;;;17.23;67.65;99959.06;4941321;28;1911;-57
2022/06/21 10:02:54;;;;;;;;;;;;;;;18.51;66.72;99955.19;4957591;28;1046;-58
2022/06/21 10:05:21;;;;;;;;;;;;;;;17.13;64.32;99942.75;4956423;28;1101;-57
2022/06/21 10:07:46;;;;;;;;;;;;;;;18.79;67.70;99945.78;4940098;29;1011;-58
2022/06/21 10:10:15;;;;;;;;;;;;;;;18.09;63.80;99939.50;4962836;28;1170;-58
2022/06/21 10:12:49;;;;;;;;;;;;;;;17.12;64.55;99935.59;4951230;28;947;-56
2022/06/21 10:15:17;;;;;;;;;;;;;;;18.58;67.37;99937.16;4951454;28;1043;-56
2022/06/21 10:18:01;;;;;;;;;;;;;;;17.19;63.97;99936.03;4960913;29;975;-57
2022/06/21 10:20:30;;;;;;;;;;;;;;;18.80;68.41;99927.31;4960470;29;1983;-54
2022/06/21 10:22:57;;;;;;;;;;;;;;;18.07;63.50;99930.72;4961037;29;1045;-56
2022/06/21 10:25:29;;;;;;;;;;;;;;;17.12;64.88;99930.13;4959973;28;1078;-54
2022/06/21 10:28:13;;;;;;;;;;;;;;;18.30;69.79;99930.84;4956891;28;1244;-56
2022/06/21 10:30:45;;;;;;;;;;;;;;;17.36;65.01;99935.50;4968462;28;1429;-57
2022/06/21 10:33:45;;;;;;;;;;;;;;;17.94;70.81;99931.53;4941154;28;1206;-58
2022/06/21 10:36:15;;;;;;;;;;;;;;;17.81;63.79;99919.38;4941834;29;1167;-57
2022/06/21 10:38:56;;;;;;;;;;;;;;;17.08;65.87;99925.22;4944884;29;1051;-57
2022/06/21 10:41:40;;;;;;;;;;;;;;;18.63;66.92;99906.75;4955828;29;1906;-58
2022/06/21 10:44:08;;;;;;;;;;;;;;;17.30;65.79;99904.53;4955040;29;1138;-58
2022/06/21 10:46:34;;;;;;;;;;;;;;;18.23;70.15;99908.41;4955618;29;1260;-59
2022/06/21 10:49:03;;;;;;;;;;;;;;;17.82;63.99;99909.16;4956423;29;1237;-57
2022/06/21 10:51:32;;;;;;;;;;;;;;;17.16;65.99;99904.50;4940130;29;1033;-56
2022/06/21 10:54:06;;;;;;;;;;;;;;;17.93;68.94;99905.13;4940911;29;999;-57
2022/06/21 11:01:16;;;;;;;;;;;;;;;17.32;64.78;99899.59;4937575;29;1907;-57
2022/06/21 11:02:24;;;;;;;;;;;;;;;18.12;69.73;99905.88;4936251;29;1214;-55
2022/06/21 11:04:56;;;;;;;;;;;;;;;17.88;66.41;99891.44;4939474;29;1004;-56
2022/06/21 11:07:24;;;;;;;;;;;;;;;17.24;67.09;99889.28;4939725;29;973;-56
2022/06/21 11:09:57;;;;;;;;;;;;;;;18.59;67.61;99893.91;4941159;29;995;-56
2022/06/21 11:15:18;;;;;;;;;;;;;;;18.24;70.05;99891.63;4928062;29;1083;-57
2022/06/21 11:17:47;;;;;;;;;;;;;;;17.77;65.94;99890.84;4941092;29;964;-58
2022/06/21 11:20:31;;;;;;;;;;;;;;;17.40;68.59;99878.81;4939187;29;1906;-57
2022/06/21 11:23:07;;;;;;;;;;;;;;;18.44;66.65;99884.88;4942228;29;984;-57
2022/06/21 11:25:39;;;;;;;;;;;;;;;17.14;63.44;99875.69;4939357;29;1047;-57
2022/06/21 11:28:05;;;;;;;;;;;;;;;18.54;69.29;99872.00;4939092;29;1083;-58
2022/06/21 11:30:37;;;;;;;;;;;;;;;17.69;65.35;99870.34;4946282;29;1000;-57
2022/06/21 11:33:07;;;;;;;;;;;;;;;17.71;69.60;99864.53;4934578;29;1014;-57
2022/06/21 11:36:11;;;;;;;;;;;;;;;18.34;66.63;99860.31;4939129;29;1177;-58
2022/06/21 11:38:42;;;;;;;;;;;;;;;17.25;66.94;99845.00;4919595;29;1129;-59
2022/06/21 11:41:13;;;;;;;;;;;;;;;18.66;67.60;99844.72;4919276;29;1987;-58
2022/06/21 11:43:44;;;;;;;;;;;;;;;17.52;63.95;99835.19;4925418;29;1099;-58
2022/06/21 11:46:10;;;;;;;;;;;;;;;18.05;70.49;99844.94;4940357;29;995;-60
2022/06/21 11:48:41;;;;;;;;;;;;;;;17.99;66.16;99840.66;4940201;29;1074;-57
2022/06/21 11:51:10;;;;;;;;;;;;;;;17.27;67.69;99836.47;4949681;28;1197;-57
2022/06/21 11:53:43;;;;;;;;;;;;;;;18.71;67.63;99841.88;4958895;29;971;-58
2022/06/21 11:56:10;;;;;;;;;;;;;;;17.36;64.02;99834.66;4954387;29;975;-58
2022/06/21 11:58:45;;;;;;;;;;;;;;;18.21;69.90;99828.13;4940122;29;1066;-57
2022/06/21 12:01:23;;;;;;;;;;;;;;;18.01;66.04;99824.66;4961147;28;1971;-57
2022/06/21 12:04:03;;;;;;;;;;;;;;;17.10;64.73;99817.78;4958428;29;1287;-57
2022/06/21 12:06:29;;;;;;;;;;;;;;;18.62;69.16;99818.94;4958911;28;1022;-57
2022/06/21 12:08:56;;;;;;;;;;;;;;;17.35;63.91;99805.53;4957941;29;947;-55
2022/06/21 12:11:28;;;;;;;;;;;;;;;18.23;70.32;99801.09;4941687;29;987;-54
2022/06/21 12:13:56;;;;;;;;;;;;;;;18.31;65.48;99800.38;4941729;29;1027;-56
2022/06/21 12:16:25;;;;;;;;;;;;;;;17.26;65.04;99797.19;4941763;29;1009;-58
2022/06/21 12:18:54;;;;;;;;;;;;;;;17.08;65.42;99793.38;4957956;29;986;-55
2022/06/21 12:21:21;;;;;;;;;;;;;;;17.41;68.35;99792.53;4941532;29;1914;-49
2022/06/21 12:23:57;;;;;;;;;;;;;;;18.68;69.90;99781.91;4958663;29;1082;-54
2022/06/21 12:26:24;;;;;;;;;;;;;;;17.49;65.64;99775.34;4966893;28;1167;-55
2022/06/21 12:28:49;;;;;;;;;;;;;;;17.52;70.07;99774.72;4958378;29;1489;-56
2022/06/21 12:31:25;;;;;;;;;;;;;;;18.35;67.91;99776.59;4939837;29;1121;-56
2022/06/21 12:33:52;;;;;;;;;;;;;;;17.18;64.07;99786.06;4961012;28;1106;-52
2022/06/21 12:36:22;;;;;;;;;;;;;;;18.16;71.09;99785.03;4951115;28;1254;-55
2022/06/21 12:38:56;;;;;;;;;;;;;;;17.78;66.09;99777.78;4948567;28;1198;-56
2022/06/21 12:41:26;;;;;;;;;;;;;;;17.48;69.85;99781.13;4972147;28;1906;-48
2022/06/21 12:43:58;;;;;;;;;;;;;;;18.47;67.62;99784.34;4973629;28;1185;-55
2022/06/21 12:46:32;;;;;;;;;;;;;;;17.24;64.06;99773.88;4958598;28;1279;-56
2022/06/21 12:49:13;;;;;;;;;;;;;;;18.23;71.14;99777.16;4949389;28;1150;-50
2022/06/21 12:51:56;;;;;;;;;;;;;;;17.70;65.17;99762.00;4961680;28;1171;-51
2022/06/21 12:54:22;;;;;;;;;;;;;;;17.48;70.36;99761.91;4939964;29;1031;-54
2022/06/21 12:57:01;;;;;;;;;;;;;;;18.26;67.35;99770.22;4956483;29;1169;-55
2022/06/21 12:59:36;;;;;;;;;;;;;;;17.10;64.76;99763.66;4940527;29;1919;-47
2022/06/21 13:02:01;;;;;;;;;;;;;;;18.61;69.89;99760.31;4957895;28;1173;-51
2022/06/21 13:04:36;;;;;;;;;;;;;;;17.57;64.40;99762.81;4959328;28;1038;-57
2022/06/21 13:07:22;;;;;;;;;;;;;;;17.81;70.98;99767.28;4957474;28;1168;-54
2022/06/21 13:09:57;;;;;;;;;;;;;;;18.06;66.23;99758.53;4951288;28;1410;-56
2022/06/21 13:12:26;;;;;;;;;;;;;;;17.10;65.39;99755.44;4935481;29;967;-53
2022/06/21 13:15:10;;;;;;;;;;;;;;;18.21;70.98;99762.88;4957776;29;907;-56
2022/06/21 13:17:42;;;;;;;;;;;;;;;17.37;64.50;99755.78;4961641;28;1081;-57
2022/06/21 13:20:26;;;;;;;;;;;;;;;17.87;71.07;99755.88;4965537;28;1906;-54
2022/06/21 13:23:03;;;;;;;;;;;;;;;17.97;65.41;99752.13;4963024;28;1095;-56
2022/06/21 13:25:29;;;;;;;;;;;;;;;17.50;69.38;99755.00;4967523;28;1213;-55
2022/06/21 13:28:04;;;;;;;;;;;;;;;19.05;67.72;99748.81;4962600;28;1273;-57
2022/06/21 13:30:39;;;;;;;;;;;;;;;17.40;64.87;99760.66;4940972;29;1054;-56
2022/06/21 13:33:10;;;;;;;;;;;;;;;17.07;65.98;99753.28;4936330;29;1030;-57